createdAt,value
2019-04-01T00:00:39.762Z,100893.52
2019-04-01T00:03:11.703Z,100894.79
2019-04-01T00:05:43.003Z,100892.16
2019-04-01T00:08:14.239Z,100894.29
2019-04-01T00:10:46.691Z,100892.82
2019-04-01T00:13:19.890Z,100887.86
2019-04-01T00:15:51.440Z,100896.62
2019-04-01T00:18:22.685Z,100896.84
2019-04-01T00:20:53.925Z,100890.61
2019-04-01T00:23:25.353Z,100889.17
2019-04-01T00:25:56.657Z,100891.72
2019-04-01T00:28:27.995Z,100891.17
2019-04-01T00:30:59.304Z,100900.36
2019-04-01T00:33:30.545Z,100905.50
2019-04-01T00:36:01.789Z,100910.77
2019-04-01T00:38:33.076Z,100908.98
2019-04-01T00:41:04.567Z,100903.67
2019-04-01T00:43:38.452Z,100904.83
2019-04-01T00:46:11.375Z,100905.00
2019-04-01T00:48:42.627Z,100906.28
2019-04-01T00:51:15.832Z,100912.01
2019-04-01T00:53:47.165Z,100911.42
2019-04-01T00:56:18.472Z,100907.42
2019-04-01T00:58:49.714Z,100914.81
2019-04-01T01:01:21.017Z,100912.56
2019-04-01T01:03:53.324Z,100908.48
2019-04-01T01:06:24.641Z,100908.98
2019-04-01T01:08:56.031Z,100906.64
2019-04-01T01:11:27.413Z,100890.72
2019-04-01T01:13:58.750Z,100891.09
2019-04-01T01:16:30.123Z,100893.03
2019-04-01T01:19:02.392Z,100883.73
2019-04-01T01:21:35.175Z,100878.05
2019-04-01T01:24:07.721Z,100877.87
2019-04-01T01:26:38.953Z,100889.57
2019-04-01T01:29:10.496Z,100882.95
2019-04-01T01:31:41.878Z,100881.83
2019-04-01T01:34:13.386Z,100884.59
2019-04-01T01:36:44.631Z,100883.23
2019-04-01T01:39:16.059Z,100878.59
2019-04-01T01:41:47.364Z,100874.50
2019-04-01T01:44:18.734Z,100877.47
2019-04-01T01:46:50.055Z,100876.24
2019-04-01T01:49:21.386Z,100879.77
2019-04-01T01:51:52.690Z,100868.22
2019-04-01T01:54:25.594Z,100867.66
2019-04-01T01:56:58.055Z,100872.25
2019-04-01T01:59:30.486Z,100866.20
2019-04-01T02:02:01.785Z,100867.94
2019-04-01T02:04:33.132Z,100871.36
2019-04-01T02:07:04.442Z,100876.00
2019-04-01T02:09:35.829Z,100871.07
2019-04-01T02:12:07.064Z,100872.86
2019-04-01T02:14:38.335Z,100866.61
2019-04-01T02:17:09.579Z,100870.13
2019-04-01T02:19:40.943Z,100867.45
2019-04-01T02:22:12.256Z,100870.03
2019-04-01T02:24:43.572Z,100859.89
2019-04-01T02:27:14.880Z,100855.71
2019-04-01T02:29:46.228Z,100854.72
2019-04-01T02:32:17.468Z,100857.77
2019-04-01T02:34:48.770Z,100851.86
2019-04-01T02:37:20.051Z,100863.06
2019-04-01T02:39:51.534Z,100863.48
2019-04-01T02:42:22.856Z,100862.12
2019-04-01T02:44:54.156Z,100861.50
2019-04-01T02:47:25.467Z,100859.55
2019-04-01T02:49:56.768Z,100859.40
2019-04-01T02:52:28.114Z,100860.61
2019-04-01T02:54:59.417Z,100859.88
2019-04-01T02:57:30.729Z,100855.88
2019-04-01T03:00:02.096Z,100857.52
2019-04-01T03:02:35.043Z,100857.78
2019-04-01T03:05:09.975Z,100855.80
2019-04-01T03:07:41.275Z,100866.20
2019-04-01T03:10:12.822Z,100856.85
2019-04-01T03:12:44.202Z,100856.48
2019-04-01T03:15:16.835Z,100859.90
2019-04-01T03:17:48.226Z,100860.27
2019-04-01T03:20:19.580Z,100860.22
2019-04-01T03:22:50.823Z,100865.84
2019-04-01T03:25:22.225Z,100865.41
2019-04-01T03:27:53.480Z,100869.67
2019-04-01T03:30:26.896Z,100865.00
2019-04-01T03:32:58.203Z,100868.05
2019-04-01T03:35:29.689Z,100873.34
2019-04-01T03:38:01.124Z,100862.73
2019-04-01T03:40:32.431Z,100866.53
2019-04-01T03:43:05.539Z,100869.05
2019-04-01T03:45:36.908Z,100872.09
2019-04-01T03:48:08.250Z,100875.25
2019-04-01T03:50:39.632Z,100873.83
2019-04-01T03:53:10.944Z,100875.92
2019-04-01T03:55:42.415Z,100871.94
2019-04-01T03:58:13.829Z,100873.62
2019-04-01T04:00:45.195Z,100871.72
2019-04-01T04:03:16.490Z,100873.51
2019-04-01T04:05:47.844Z,100877.28
2019-04-01T04:08:19.167Z,100873.71
2019-04-01T04:10:50.472Z,100871.39
2019-04-01T04:13:21.809Z,100872.97
2019-04-01T04:15:53.308Z,100867.66
2019-04-01T04:18:24.574Z,100875.06
2019-04-01T04:20:56.014Z,100875.31
2019-04-01T04:23:27.444Z,100873.47
2019-04-01T04:25:58.798Z,100879.44
2019-04-01T04:28:30.110Z,100881.59
2019-04-01T04:31:01.550Z,100882.31
2019-04-01T04:33:32.786Z,100887.45
2019-04-01T04:36:04.285Z,100885.19
2019-04-01T04:38:35.716Z,100880.83
2019-04-01T04:41:07.154Z,100880.41
2019-04-01T04:43:38.573Z,100890.84
2019-04-01T04:46:09.957Z,100892.22
2019-04-01T04:48:41.198Z,100887.81
2019-04-01T04:51:12.571Z,100887.70
2019-04-01T04:53:43.873Z,100890.14
2019-04-01T04:56:15.258Z,100897.06
2019-04-01T04:58:46.566Z,100888.66
2019-04-01T05:01:18.022Z,100894.74
2019-04-01T05:03:49.353Z,100891.49
2019-04-01T05:06:21.392Z,100890.66
2019-04-01T05:08:52.693Z,100891.49
2019-04-01T05:11:24.339Z,100892.27
2019-04-01T05:13:57.333Z,100894.00
2019-04-01T05:16:28.695Z,100895.73
2019-04-01T05:19:00.004Z,100898.35
2019-04-01T05:21:32.090Z,100900.08
2019-04-01T05:24:03.975Z,100900.02
2019-04-01T05:26:38.213Z,100902.64
2019-04-01T05:29:10.759Z,100900.55
2019-04-01T05:31:45.543Z,100903.23
2019-04-01T05:34:20.038Z,100903.66
2019-04-01T05:36:51.402Z,100900.38
2019-04-01T05:39:22.795Z,100900.86
2019-04-01T05:41:54.269Z,100901.80
2019-04-01T05:44:25.643Z,100904.02
2019-04-01T05:46:56.925Z,100903.89
2019-04-01T05:49:28.407Z,100902.58
2019-04-01T05:51:59.771Z,100906.94
2019-04-01T05:54:31.120Z,100905.63
2019-04-01T05:57:02.635Z,100909.61
2019-04-01T05:59:34.111Z,100910.14
2019-04-01T06:02:06.324Z,100911.94
2019-04-01T06:04:37.975Z,100912.95
2019-04-01T06:07:09.404Z,100916.14
2019-04-01T06:09:41.456Z,100921.55
2019-04-01T06:12:12.865Z,100920.30
2019-04-01T06:14:45.728Z,100918.75
2019-04-01T06:17:17.095Z,100919.39
2019-04-01T06:19:48.468Z,100924.39
2019-04-01T06:22:19.984Z,100919.31
2019-04-01T06:24:53.091Z,100926.88
2019-04-01T06:27:24.993Z,100936.66
2019-04-01T06:29:59.260Z,100925.38
2019-04-01T06:32:30.018Z,100929.48
2019-04-01T06:35:01.597Z,100928.92
2019-04-01T06:37:34.101Z,100924.20
2019-04-01T06:40:07.252Z,100925.69
2019-04-01T06:42:38.757Z,100924.95
2019-04-01T06:45:10.511Z,100919.03
2019-04-01T06:47:41.998Z,100920.17
2019-04-01T06:50:13.529Z,100924.33
2019-04-01T06:52:44.948Z,100917.03
2019-04-01T06:55:16.395Z,100917.19
2019-04-01T06:57:47.812Z,100914.83
2019-04-01T07:00:19.501Z,100912.09
2019-04-01T07:02:50.935Z,100910.20
2019-04-01T07:05:22.314Z,100910.88
2019-04-01T07:07:53.741Z,100916.33
2019-04-01T07:10:25.282Z,100913.62
2019-04-01T07:12:56.726Z,100908.19
2019-04-01T07:15:28.167Z,100908.48
2019-04-01T07:17:59.407Z,100908.35
2019-04-01T07:20:30.850Z,100913.99
2019-04-01T07:23:03.162Z,100908.97
2019-04-01T07:25:34.484Z,100907.52
2019-04-01T07:28:06.010Z,100912.91
2019-04-01T07:30:37.699Z,100911.45
2019-04-01T07:33:09.014Z,100912.19
2019-04-01T07:35:40.537Z,100904.98
2019-04-01T07:38:11.907Z,100906.66
2019-04-01T07:40:43.321Z,100904.28
2019-04-01T07:43:15.142Z,100906.79
2019-04-01T07:45:46.795Z,100908.39
2019-04-01T07:48:18.289Z,100904.89
2019-04-01T07:50:49.917Z,100903.98
2019-04-01T07:53:21.241Z,100902.08
2019-04-01T07:55:52.472Z,100901.45
2019-04-01T07:58:24.012Z,100905.56
2019-04-01T08:00:55.653Z,100903.55
2019-04-01T08:03:27.163Z,100894.50
2019-04-01T08:05:58.570Z,100894.80
2019-04-01T08:08:30.200Z,100893.34
2019-04-01T08:11:01.574Z,100896.65
2019-04-01T08:13:33.034Z,100891.29
2019-04-01T08:16:04.414Z,100890.63
2019-04-01T08:18:35.851Z,100886.80
2019-04-01T08:21:07.292Z,100883.83
2019-04-01T08:23:38.820Z,100884.85
2019-04-01T08:26:10.121Z,100884.19
2019-04-01T08:28:41.462Z,100882.13
2019-04-01T08:31:13.461Z,100877.83
2019-04-01T08:33:44.985Z,100886.85
2019-04-01T08:36:16.304Z,100881.31
2019-04-01T08:38:47.775Z,100880.69
2019-04-01T08:41:19.231Z,100880.45
2019-04-01T08:43:50.666Z,100883.83
2019-04-01T08:46:22.071Z,100884.15
2019-04-01T08:48:53.528Z,100883.50
2019-04-01T08:51:24.925Z,100877.53
2019-04-01T08:53:56.282Z,100885.28
2019-04-01T08:56:29.539Z,100888.02
2019-04-01T08:59:01.086Z,100882.79
2019-04-01T09:01:35.340Z,100882.88
2019-04-01T09:04:05.742Z,100879.06
2019-04-01T09:06:37.001Z,100874.72
2019-04-01T09:09:08.578Z,100873.54
2019-04-01T09:11:40.455Z,100876.27
2019-04-01T09:14:11.827Z,100874.91
2019-04-01T09:16:43.611Z,100881.98
2019-04-01T09:19:15.109Z,100877.67
2019-04-01T09:21:46.394Z,100872.08
2019-04-01T09:24:17.773Z,100867.37
2019-04-01T09:26:49.097Z,100863.63
2019-04-01T09:29:21.638Z,100860.25
2019-04-01T09:31:52.963Z,100861.13
2019-04-01T09:34:24.343Z,100847.92
2019-04-01T09:36:55.666Z,100852.16
2019-04-01T09:39:27.043Z,100844.78
2019-04-01T09:41:58.359Z,100841.34
2019-04-01T09:44:36.602Z,100835.61
2019-04-01T09:47:02.697Z,100833.80
2019-04-01T09:49:34.074Z,100838.80
2019-04-01T09:52:05.589Z,100839.36
2019-04-01T09:54:36.896Z,100828.79
2019-04-01T09:57:17.427Z,100837.66
2019-04-01T09:59:41.283Z,100835.45
2019-04-01T10:02:12.671Z,100825.88
2019-04-01T10:04:43.982Z,100821.06
2019-04-01T10:07:16.346Z,100825.11
2019-04-01T10:09:47.643Z,100818.06
2019-04-01T10:12:20.068Z,100816.33
2019-04-01T10:14:51.503Z,100815.47
2019-04-01T10:17:23.822Z,100815.89
2019-04-01T10:19:55.280Z,100812.39
2019-04-01T10:22:26.612Z,100800.02
2019-04-01T10:24:58.125Z,100808.45
2019-04-01T10:27:29.554Z,100802.24
2019-04-01T10:30:01.158Z,100795.59
2019-04-01T10:32:32.647Z,100790.27
2019-04-01T10:35:06.225Z,100793.37
2019-04-01T10:37:37.594Z,100788.05
2019-04-01T10:40:13.577Z,100788.08
2019-04-01T10:42:45.016Z,100787.62
2019-04-01T10:45:16.598Z,100780.98
2019-04-01T10:47:47.988Z,100776.08
2019-04-01T10:52:56.963Z,100762.61
2019-04-01T10:55:28.302Z,100762.11
2019-04-01T10:57:59.888Z,100767.36
2019-04-01T11:00:31.409Z,100761.98
2019-04-01T11:03:05.926Z,100752.17
2019-04-01T11:05:36.105Z,100747.77
2019-04-01T11:08:10.932Z,100749.45
2019-04-01T11:10:43.401Z,100748.45
2019-04-01T11:13:14.763Z,100745.49
2019-04-01T11:15:46.092Z,100741.41
2019-04-01T11:18:17.550Z,100738.94
2019-04-01T11:20:48.799Z,100740.80
2019-04-01T11:23:22.442Z,100737.11
2019-04-01T11:25:53.700Z,100735.45
2019-04-01T11:28:25.150Z,100736.38
2019-04-01T11:31:06.247Z,100728.43
2019-04-01T11:33:37.752Z,100725.36
2019-04-01T11:36:10.513Z,100710.45
2019-04-01T11:38:42.012Z,100713.86
2019-04-01T11:41:13.522Z,100706.92
2019-04-01T11:43:45.013Z,100702.06
2019-04-01T11:46:16.426Z,100699.71
2019-04-01T11:48:47.736Z,100691.27
2019-04-01T11:51:32.017Z,100683.83
2019-04-01T11:53:52.342Z,100686.19
2019-04-01T11:56:26.507Z,100677.42
2019-04-01T11:58:57.122Z,100674.16
2019-04-01T12:01:28.693Z,100679.08
2019-04-01T12:04:13.212Z,100671.62
2019-04-01T12:06:44.654Z,100663.75
2019-04-01T12:09:16.059Z,100666.28
2019-04-01T12:11:47.517Z,100662.50
2019-04-01T12:14:18.838Z,100660.78
2019-04-01T12:16:50.236Z,100651.09
2019-04-01T12:19:21.491Z,100647.94
2019-04-01T12:21:52.892Z,100632.92
2019-04-01T12:24:24.233Z,100630.13
2019-04-01T12:26:56.348Z,100629.39
2019-04-01T12:29:27.878Z,100622.44
2019-04-01T12:31:59.911Z,100616.58
2019-04-01T12:34:31.803Z,100617.64
2019-04-01T12:37:03.669Z,100613.78
2019-04-01T12:39:35.061Z,100606.30
2019-04-01T12:42:06.792Z,100608.25
2019-04-01T12:44:38.110Z,100604.23
2019-04-01T12:47:10.384Z,100602.95
2019-04-01T12:49:41.734Z,100596.95
2019-04-01T12:52:13.107Z,100586.74
2019-04-01T12:54:44.717Z,100580.28
2019-04-01T12:57:21.060Z,100580.06
2019-04-01T12:59:53.362Z,100570.52
2019-04-01T13:02:25.037Z,100573.15
2019-04-01T13:04:57.116Z,100560.90
2019-04-01T13:07:28.495Z,100558.13
2019-04-01T13:09:59.743Z,100554.01
2019-04-01T13:12:32.336Z,100549.39
2019-04-01T13:15:04.049Z,100546.00
2019-04-01T13:17:35.544Z,100540.69
2019-04-01T13:20:09.942Z,100530.63
2019-04-01T13:22:41.371Z,100528.27
2019-04-01T13:25:13.869Z,100520.99
2019-04-01T13:27:45.254Z,100512.58
2019-04-01T13:30:17.146Z,100518.42
2019-04-01T13:32:51.148Z,100517.83
2019-04-01T13:35:21.550Z,100512.55
2019-04-01T13:37:52.990Z,100502.84
2019-04-01T13:40:24.385Z,100500.55
2019-04-01T13:42:55.788Z,100501.23
2019-04-01T13:45:31.373Z,100488.34
2019-04-01T13:48:00.188Z,100488.49
2019-04-01T13:50:32.575Z,100486.07
2019-04-01T13:53:07.202Z,100474.94
2019-04-01T13:55:40.386Z,100479.06
2019-04-01T13:58:11.790Z,100481.31
2019-04-01T14:00:44.227Z,100466.12
2019-04-01T14:03:15.865Z,100468.31
2019-04-01T14:05:48.218Z,100458.86
2019-04-01T14:08:19.601Z,100455.92
2019-04-01T14:10:51.079Z,100445.86
2019-04-01T14:13:22.458Z,100447.13
2019-04-01T14:15:53.767Z,100442.38
2019-04-01T14:18:25.089Z,100436.03
2019-04-01T14:20:58.118Z,100434.00
2019-04-01T14:23:29.471Z,100428.68
2019-04-01T14:26:00.797Z,100431.19
2019-04-01T14:28:32.161Z,100421.57
2019-04-01T14:31:03.463Z,100421.98
2019-04-01T14:33:34.827Z,100416.37
2019-04-01T14:36:06.270Z,100413.19
2019-04-01T14:38:37.595Z,100414.78
2019-04-01T14:41:09.092Z,100406.72
2019-04-01T14:43:40.637Z,100404.44
2019-04-01T14:46:12.003Z,100402.97
2019-04-01T14:48:44.990Z,100400.16
2019-04-01T14:51:16.302Z,100398.45
2019-04-01T14:53:47.653Z,100400.65
2019-04-01T14:56:18.982Z,100389.56
2019-04-01T14:58:50.252Z,100387.40
2019-04-01T15:01:23.249Z,100379.44
2019-04-01T15:03:54.568Z,100376.02
2019-04-01T15:06:26.908Z,100371.41
2019-04-01T15:09:01.086Z,100369.39
2019-04-01T15:11:34.014Z,100370.06
2019-04-01T15:14:05.515Z,100366.98
2019-04-01T15:16:36.895Z,100365.63
2019-04-01T15:19:08.405Z,100365.69
2019-04-01T15:21:39.794Z,100367.71
2019-04-01T15:24:11.249Z,100361.20
2019-04-01T15:26:44.283Z,100356.11
2019-04-01T15:29:15.647Z,100351.17
2019-04-01T15:31:48.658Z,100346.13
2019-04-01T15:34:28.876Z,100347.31
2019-04-01T15:37:00.419Z,100348.56
2019-04-01T15:39:32.745Z,100343.89
2019-04-01T15:42:03.990Z,100345.18
2019-04-01T15:44:38.048Z,100342.09
2019-04-01T15:50:45.962Z,100332.40
2019-04-01T15:53:17.977Z,100337.24
2019-04-01T15:55:49.745Z,100335.39
2019-04-01T15:58:21.364Z,100334.91
2019-04-01T16:01:05.025Z,100328.67
2019-04-01T16:11:03.695Z,100318.87
2019-04-01T16:17:02.960Z,100318.70
2019-04-01T16:19:34.724Z,100311.50
2019-04-01T16:22:47.380Z,100307.34
2019-04-01T16:25:47.491Z,100310.08
2019-04-01T16:31:42.785Z,100305.84
2019-04-01T16:38:00.581Z,100311.73
2019-04-01T16:43:58.560Z,100302.91
2019-04-01T16:46:30.438Z,100306.70
2019-04-01T16:49:02.158Z,100306.98
2019-04-01T16:51:33.815Z,100303.88
2019-04-01T16:58:32.370Z,100302.73
2019-04-01T17:04:48.368Z,100296.88
2019-04-01T17:07:20.456Z,100296.17
2019-04-01T17:09:52.158Z,100298.33
2019-04-01T17:12:23.733Z,100294.06
2019-04-01T17:14:55.416Z,100288.75
2019-04-01T17:17:26.945Z,100292.73
2019-04-01T17:19:59.629Z,100289.38
2019-04-01T17:22:33.450Z,100286.24
2019-04-01T19:24:53.281Z,100322.37
2019-04-01T19:27:26.242Z,100317.55
2019-04-01T19:30:00.644Z,100326.17
2019-04-01T19:32:33.299Z,100324.66
2019-04-01T19:35:10.964Z,100326.11
2019-04-01T19:37:42.596Z,100324.42
2019-04-01T19:40:14.746Z,100320.06
2019-04-01T19:42:47.347Z,100321.44
2019-04-01T19:45:26.339Z,100327.68
2019-04-01T19:48:07.723Z,100324.59
2019-04-01T19:50:40.543Z,100330.86
2019-04-01T19:53:17.799Z,100325.56
2019-04-01T19:55:53.798Z,100329.53
2019-04-01T19:58:32.916Z,100318.48
2019-04-01T20:01:04.623Z,100321.59
2019-04-01T20:03:36.100Z,100319.84
2019-04-01T20:06:23.184Z,100322.07
2019-04-01T20:08:54.822Z,100322.09
2019-04-01T20:11:26.527Z,100313.25
2019-04-01T20:14:00.755Z,100314.59
2019-04-01T20:16:38.572Z,100311.52
2019-04-01T20:19:10.483Z,100307.56
2019-04-01T20:21:47.332Z,100302.71
2019-04-01T20:24:20.093Z,100306.70
2019-04-01T20:26:54.915Z,100306.73
2019-04-01T20:29:30.227Z,100308.52
2019-04-01T20:32:01.378Z,100301.89
2019-04-01T20:34:40.707Z,100301.45
2019-04-01T20:37:19.226Z,100297.91
2019-04-01T20:39:51.127Z,100294.81
2019-04-01T20:42:24.422Z,100296.14
2019-04-01T20:45:10.560Z,100292.16
2019-04-01T20:47:50.158Z,100298.79
2019-04-01T20:50:21.758Z,100293.48
2019-04-01T20:52:58.051Z,100292.62
2019-04-01T20:55:47.590Z,100290.86
2019-04-01T20:58:18.163Z,100290.86
2019-04-01T21:00:57.044Z,100280.25
2019-04-01T21:03:35.652Z,100281.13
2019-04-01T21:06:13.735Z,100280.67
2019-04-01T21:08:51.124Z,100280.23
2019-04-01T21:11:25.982Z,100272.73
2019-04-01T21:14:03.528Z,100274.94
2019-04-01T21:16:53.576Z,100272.73
2019-04-01T21:19:28.936Z,100269.19
2019-04-01T21:22:03.414Z,100270.53
2019-04-01T21:24:38.151Z,100270.11
2019-04-01T21:27:09.695Z,100265.69
2019-04-01T21:29:42.606Z,100272.32
2019-04-01T21:32:16.906Z,100267.02
2019-04-01T21:34:52.575Z,100266.15
2019-04-01T21:37:35.187Z,100259.96
2019-04-01T21:40:15.799Z,100262.61
2019-04-01T21:42:51.495Z,100266.16
2019-04-01T21:45:24.618Z,100256.00
2019-04-01T21:47:57.792Z,100256.00
2019-04-01T21:50:31.321Z,100247.62
2019-04-01T21:53:08.606Z,100255.59
2019-04-01T21:55:40.209Z,100249.84
2019-04-01T21:58:15.802Z,100253.84
2019-04-01T22:00:56.568Z,100251.63
2019-04-01T22:03:30.022Z,100252.95
2019-04-01T22:06:01.626Z,100249.88
2019-04-01T22:08:35.209Z,100249.88
2019-04-01T22:11:11.028Z,100252.53
2019-04-01T22:13:56.500Z,100250.77
2019-04-01T22:16:43.653Z,100251.65
2019-04-01T22:19:12.268Z,100245.02
2019-04-01T22:21:47.098Z,100244.14
2019-04-01T22:24:26.740Z,100246.34
2019-04-01T22:26:59.859Z,100244.58
2019-04-01T22:29:48.922Z,100241.48
2019-04-01T22:32:27.483Z,100237.06
2019-04-01T22:35:05.214Z,100241.44
2019-04-01T22:37:54.388Z,100241.40
2019-04-01T22:40:17.687Z,100240.08
2019-04-01T22:42:52.393Z,100233.45
2019-04-01T22:45:33.974Z,100234.77
2019-04-01T22:48:14.697Z,100229.02
2019-04-01T22:50:46.228Z,100230.78
2019-04-01T22:53:19.633Z,100227.67
2019-04-01T22:55:51.114Z,100229.00
2019-04-01T22:58:27.379Z,100222.84
2019-04-01T23:01:06.556Z,100229.91
2019-04-01T23:03:40.200Z,100221.53
2019-04-01T23:06:19.136Z,100221.52
2019-04-01T23:08:53.284Z,100217.98
2019-04-01T23:11:26.567Z,100221.48
2019-04-01T23:14:08.512Z,100215.27
2019-04-01T23:16:56.625Z,100217.89
2019-04-01T23:19:34.501Z,100213.45
2019-04-01T23:22:07.950Z,100213.87
2019-04-01T23:24:44.740Z,100205.92
2019-04-01T23:27:24.307Z,100214.72
2019-04-01T23:29:52.668Z,100209.84
2019-04-01T23:32:27.443Z,100203.20
2019-04-01T23:34:59.863Z,100205.42
2019-04-01T23:37:34.744Z,100207.67
2019-04-01T23:40:09.580Z,100201.08
2019-04-01T23:42:50.658Z,100203.69
2019-04-01T23:45:25.814Z,100195.23
2019-04-01T23:48:00.885Z,100193.44
2019-04-01T23:50:41.046Z,100196.51
2019-04-01T23:53:19.984Z,100197.80
2019-04-01T23:55:58.225Z,100192.02
2019-04-01T23:58:30.858Z,100187.52
